sensor_id;sensor_type;location;lat;lon;timestamp;temperature;humidity
10352;DHT22;5222;49.324;8.420;2022-08-11T00:00:19;26.40;64.80
10352;DHT22;5222;49.324;8.420;2022-08-11T00:02:49;26.40;64.70
10352;DHT22;5222;49.324;8.420;2022-08-11T00:05:19;26.40;64.80
10352;DHT22;5222;49.324;8.420;2022-08-11T00:07:48;26.50;64.70
10352;DHT22;5222;49.324;8.420;2022-08-11T00:10:17;26.50;64.80
10352;DHT22;5222;49.324;8.420;2022-08-11T00:12:50;26.40;64.90
10352;DHT22;5222;49.324;8.420;2022-08-11T00:15:17;26.40;65.00
10352;DHT22;5222;49.324;8.420;2022-08-11T00:17:45;26.50;64.90
10352;DHT22;5222;49.324;8.420;2022-08-11T00:20:14;26.40;65.00
10352;DHT22;5222;49.324;8.420;2022-08-11T00:22:43;26.40;65.30
10352;DHT22;5222;49.324;8.420;2022-08-11T00:25:12;26.30;65.40
10352;DHT22;5222;49.324;8.420;2022-08-11T00:27:40;26.30;65.40
10352;DHT22;5222;49.324;8.420;2022-08-11T00:30:09;26.30;65.40
10352;DHT22;5222;49.324;8.420;2022-08-11T00:32:40;26.40;65.30
10352;DHT22;5222;49.324;8.420;2022-08-11T00:35:10;26.40;65.20
10352;DHT22;5222;49.324;8.420;2022-08-11T00:37:44;26.40;65.10
10352;DHT22;5222;49.324;8.420;2022-08-11T00:40:18;26.50;65.00
10352;DHT22;5222;49.324;8.420;2022-08-11T00:42:54;26.50;65.10
10352;DHT22;5222;49.324;8.420;2022-08-11T00:45:28;26.40;65.40
10352;DHT22;5222;49.324;8.420;2022-08-11T00:48:04;26.30;65.50
10352;DHT22;5222;49.324;8.420;2022-08-11T00:50:41;26.30;65.80
10352;DHT22;5222;49.324;8.420;2022-08-11T00:53:24;26.10;66.00
10352;DHT22;5222;49.324;8.420;2022-08-11T00:56:36;26.00;66.20
10352;DHT22;5222;49.324;8.420;2022-08-11T00:59:31;25.90;66.20
10352;DHT22;5222;49.324;8.420;2022-08-11T01:02:15;26.00;66.10
10352;DHT22;5222;49.324;8.420;2022-08-11T01:05:18;26.00;66.30
10352;DHT22;5222;49.324;8.420;2022-08-11T01:14:49;26.10;66.50
10352;DHT22;5222;49.324;8.420;2022-08-11T01:21:14;26.10;66.60
10352;DHT22;5222;49.324;8.420;2022-08-11T01:27:31;26.20;66.40
10352;DHT22;5222;49.324;8.420;2022-08-11T01:39:37;26.10;66.90
10352;DHT22;5222;49.324;8.420;2022-08-11T01:42:45;26.10;66.90
10352;DHT22;5222;49.324;8.420;2022-08-11T01:45:40;26.10;67.00
10352;DHT22;5222;49.324;8.420;2022-08-11T01:48:18;26.10;66.90
10352;DHT22;5222;49.324;8.420;2022-08-11T01:51:00;26.00;67.10
10352;DHT22;5222;49.324;8.420;2022-08-11T01:53:37;25.90;67.40
10352;DHT22;5222;49.324;8.420;2022-08-11T01:56:21;25.80;67.80
10352;DHT22;5222;49.324;8.420;2022-08-11T01:58:59;25.70;68.70
10352;DHT22;5222;49.324;8.420;2022-08-11T02:01:37;25.60;69.60
10352;DHT22;5222;49.324;8.420;2022-08-11T02:04:16;25.40;69.80
10352;DHT22;5222;49.324;8.420;2022-08-11T02:06:49;25.30;70.60
10352;DHT22;5222;49.324;8.420;2022-08-11T02:09:32;25.20;70.70
10352;DHT22;5222;49.324;8.420;2022-08-11T02:12:27;25.10;71.10
10352;DHT22;5222;49.324;8.420;2022-08-11T02:15:07;24.90;71.40
10352;DHT22;5222;49.324;8.420;2022-08-11T02:17:55;24.80;71.50
10352;DHT22;5222;49.324;8.420;2022-08-11T02:20:26;24.70;71.80
10352;DHT22;5222;49.324;8.420;2022-08-11T02:23:22;24.60;72.00
10352;DHT22;5222;49.324;8.420;2022-08-11T02:26:09;24.50;72.00
10352;DHT22;5222;49.324;8.420;2022-08-11T02:28:52;24.40;72.40
10352;DHT22;5222;49.324;8.420;2022-08-11T02:31:26;24.20;73.10
10352;DHT22;5222;49.324;8.420;2022-08-11T02:34:21;24.10;73.30
10352;DHT22;5222;49.324;8.420;2022-08-11T02:36:59;23.90;73.70
10352;DHT22;5222;49.324;8.420;2022-08-11T02:39:36;23.80;74.10
10352;DHT22;5222;49.324;8.420;2022-08-11T02:42:16;23.70;74.00
10352;DHT22;5222;49.324;8.420;2022-08-11T02:45:08;23.70;74.10
10352;DHT22;5222;49.324;8.420;2022-08-11T02:48:00;23.60;74.30
10352;DHT22;5222;49.324;8.420;2022-08-11T02:50:51;23.60;74.60
10352;DHT22;5222;49.324;8.420;2022-08-11T02:53:26;23.50;74.50
10352;DHT22;5222;49.324;8.420;2022-08-11T02:56:02;23.50;74.70
10352;DHT22;5222;49.324;8.420;2022-08-11T02:58:40;23.50;74.70
10352;DHT22;5222;49.324;8.420;2022-08-11T03:01:17;23.50;75.00
10352;DHT22;5222;49.324;8.420;2022-08-11T03:03:51;23.50;75.00
10352;DHT22;5222;49.324;8.420;2022-08-11T03:06:27;23.50;75.30
10352;DHT22;5222;49.324;8.420;2022-08-11T03:09:02;23.30;75.70
10352;DHT22;5222;49.324;8.420;2022-08-11T03:11:49;23.30;76.30
10352;DHT22;5222;49.324;8.420;2022-08-11T03:14:45;23.20;76.30
10352;DHT22;5222;49.324;8.420;2022-08-11T03:17:36;23.10;76.60
10352;DHT22;5222;49.324;8.420;2022-08-11T03:20:15;23.00;76.70
10352;DHT22;5222;49.324;8.420;2022-08-11T03:22:52;22.90;76.70
10352;DHT22;5222;49.324;8.420;2022-08-11T03:25:26;22.80;76.90
10352;DHT22;5222;49.324;8.420;2022-08-11T03:28:03;22.80;77.00
10352;DHT22;5222;49.324;8.420;2022-08-11T03:30:41;22.70;76.90
10352;DHT22;5222;49.324;8.420;2022-08-11T03:33:18;22.70;76.90
10352;DHT22;5222;49.324;8.420;2022-08-11T03:36:20;22.70;77.00
10352;DHT22;5222;49.324;8.420;2022-08-11T03:38:58;22.70;77.10
10352;DHT22;5222;49.324;8.420;2022-08-11T03:41:34;22.60;77.20
10352;DHT22;5222;49.324;8.420;2022-08-11T03:44:28;22.60;77.20
10352;DHT22;5222;49.324;8.420;2022-08-11T03:49:56;22.60;77.30
10352;DHT22;5222;49.324;8.420;2022-08-11T03:52:37;22.50;77.60
10352;DHT22;5222;49.324;8.420;2022-08-11T03:55:10;22.40;77.80
10352;DHT22;5222;49.324;8.420;2022-08-11T04:01:35;22.40;77.70
10352;DHT22;5222;49.324;8.420;2022-08-11T04:04:42;22.50;77.70
10352;DHT22;5222;49.324;8.420;2022-08-11T04:16:43;22.50;77.90
10352;DHT22;5222;49.324;8.420;2022-08-11T04:19:42;22.50;77.90
10352;DHT22;5222;49.324;8.420;2022-08-11T04:22:48;22.40;77.90
10352;DHT22;5222;49.324;8.420;2022-08-11T04:25:28;22.40;78.00
10352;DHT22;5222;49.324;8.420;2022-08-11T04:28:22;22.40;77.90
10352;DHT22;5222;49.324;8.420;2022-08-11T04:31:09;22.40;78.00
10352;DHT22;5222;49.324;8.420;2022-08-11T04:33:48;22.30;78.10
10352;DHT22;5222;49.324;8.420;2022-08-11T04:36:36;22.40;78.20
10352;DHT22;5222;49.324;8.420;2022-08-11T04:39:38;22.40;78.00
10352;DHT22;5222;49.324;8.420;2022-08-11T04:45:35;22.60;77.60
10352;DHT22;5222;49.324;8.420;2022-08-11T04:48:22;22.80;77.30
10352;DHT22;5222;49.324;8.420;2022-08-11T04:51:29;22.80;77.20
10352;DHT22;5222;49.324;8.420;2022-08-11T04:54:25;23.00;76.90
10352;DHT22;5222;49.324;8.420;2022-08-11T04:57:33;23.10;76.70
10352;DHT22;5222;49.324;8.420;2022-08-11T05:00:24;23.20;76.50
10352;DHT22;5222;49.324;8.420;2022-08-11T05:03:52;23.40;76.10
10352;DHT22;5222;49.324;8.420;2022-08-11T05:09:54;23.70;75.50
10352;DHT22;5222;49.324;8.420;2022-08-11T05:12:34;23.70;76.50
10352;DHT22;5222;49.324;8.420;2022-08-11T05:15:02;23.90;76.40
10352;DHT22;5222;49.324;8.420;2022-08-11T05:17:56;24.20;75.70
10352;DHT22;5222;49.324;8.420;2022-08-11T05:20:47;24.60;74.90
10352;DHT22;5222;49.324;8.420;2022-08-11T05:23:33;24.90;73.60
10352;DHT22;5222;49.324;8.420;2022-08-11T05:26:19;25.00;73.90
10352;DHT22;5222;49.324;8.420;2022-08-11T05:29:26;25.30;73.30
10352;DHT22;5222;49.324;8.420;2022-08-11T05:32:14;25.60;72.70
10352;DHT22;5222;49.324;8.420;2022-08-11T05:35:02;25.90;72.60
10352;DHT22;5222;49.324;8.420;2022-08-11T05:37:33;26.30;71.50
10352;DHT22;5222;49.324;8.420;2022-08-11T05:40:06;26.40;70.80
10352;DHT22;5222;49.324;8.420;2022-08-11T05:42:55;26.40;70.80
10352;DHT22;5222;49.324;8.420;2022-08-11T05:45:42;26.40;70.90
10352;DHT22;5222;49.324;8.420;2022-08-11T05:48:31;26.50;70.80
10352;DHT22;5222;49.324;8.420;2022-08-11T05:51:16;26.60;70.50
10352;DHT22;5222;49.324;8.420;2022-08-11T05:54:02;26.80;70.30
10352;DHT22;5222;49.324;8.420;2022-08-11T05:56:51;26.90;69.90
10352;DHT22;5222;49.324;8.420;2022-08-11T05:59:19;27.20;69.80
10352;DHT22;5222;49.324;8.420;2022-08-11T06:01:48;27.40;69.80
10352;DHT22;5222;49.324;8.420;2022-08-11T06:04:18;27.70;69.20
10352;DHT22;5222;49.324;8.420;2022-08-11T06:06:49;28.00;68.60
10352;DHT22;5222;49.324;8.420;2022-08-11T06:09:21;28.20;68.40
10352;DHT22;5222;49.324;8.420;2022-08-11T06:11:49;28.30;67.90
10352;DHT22;5222;49.324;8.420;2022-08-11T06:14:17;28.60;67.70
10352;DHT22;5222;49.324;8.420;2022-08-11T06:16:49;28.70;67.10
10352;DHT22;5222;49.324;8.420;2022-08-11T06:19:19;28.80;67.00
10352;DHT22;5222;49.324;8.420;2022-08-11T06:21:48;29.00;66.70
10352;DHT22;5222;49.324;8.420;2022-08-11T06:24:17;29.20;66.40
10352;DHT22;5222;49.324;8.420;2022-08-11T06:26:49;29.40;66.10
10352;DHT22;5222;49.324;8.420;2022-08-11T06:29:17;29.50;66.30
10352;DHT22;5222;49.324;8.420;2022-08-11T06:31:52;29.60;65.60
10352;DHT22;5222;49.324;8.420;2022-08-11T06:34:30;29.70;66.00
10352;DHT22;5222;49.324;8.420;2022-08-11T06:37:08;29.90;65.70
10352;DHT22;5222;49.324;8.420;2022-08-11T06:39:46;29.90;65.40
10352;DHT22;5222;49.324;8.420;2022-08-11T06:42:28;30.00;65.30
10352;DHT22;5222;49.324;8.420;2022-08-11T06:45:03;30.40;64.80
10352;DHT22;5222;49.324;8.420;2022-08-11T06:47:34;30.50;64.70
10352;DHT22;5222;49.324;8.420;2022-08-11T06:50:02;30.80;64.30
10352;DHT22;5222;49.324;8.420;2022-08-11T06:52:52;31.20;63.70
10352;DHT22;5222;49.324;8.420;2022-08-11T06:55:22;31.40;63.40
10352;DHT22;5222;49.324;8.420;2022-08-11T06:58:12;31.60;62.30
10352;DHT22;5222;49.324;8.420;2022-08-11T07:01:00;32.00;62.40
10352;DHT22;5222;49.324;8.420;2022-08-11T07:03:36;32.40;61.90
10352;DHT22;5222;49.324;8.420;2022-08-11T07:06:24;32.80;61.30
10352;DHT22;5222;49.324;8.420;2022-08-11T07:09:08;33.20;60.20
10352;DHT22;5222;49.324;8.420;2022-08-11T07:12:25;33.40;60.10
10352;DHT22;5222;49.324;8.420;2022-08-11T07:15:16;33.50;60.40
10352;DHT22;5222;49.324;8.420;2022-08-11T07:18:03;33.70;59.50
10352;DHT22;5222;49.324;8.420;2022-08-11T07:20:51;33.70;60.10
10352;DHT22;5222;49.324;8.420;2022-08-11T07:23:38;33.90;59.70
10352;DHT22;5222;49.324;8.420;2022-08-11T07:26:25;33.90;59.50
10352;DHT22;5222;49.324;8.420;2022-08-11T07:29:18;34.00;59.90
10352;DHT22;5222;49.324;8.420;2022-08-11T07:31:50;34.10;59.70
10352;DHT22;5222;49.324;8.420;2022-08-11T07:34:20;34.20;59.60
10352;DHT22;5222;49.324;8.420;2022-08-11T07:36:52;34.30;59.30
10352;DHT22;5222;49.324;8.420;2022-08-11T07:39:21;34.60;59.50
10352;DHT22;5222;49.324;8.420;2022-08-11T07:41:52;34.60;59.40
10352;DHT22;5222;49.324;8.420;2022-08-11T07:44:20;34.50;59.50
10352;DHT22;5222;49.324;8.420;2022-08-11T07:46:52;34.40;59.80
10352;DHT22;5222;49.324;8.420;2022-08-11T07:49:43;34.30;59.40
10352;DHT22;5222;49.324;8.420;2022-08-11T07:52:32;34.30;59.00
10352;DHT22;5222;49.324;8.420;2022-08-11T07:55:04;34.30;59.20
10352;DHT22;5222;49.324;8.420;2022-08-11T07:57:32;34.50;59.00
10352;DHT22;5222;49.324;8.420;2022-08-11T08:00:18;34.10;58.40
10352;DHT22;5222;49.324;8.420;2022-08-11T08:03:03;34.00;58.30
10352;DHT22;5222;49.324;8.420;2022-08-11T08:05:49;33.90;58.50
10352;DHT22;5222;49.324;8.420;2022-08-11T08:08:35;33.70;58.50
10352;DHT22;5222;49.324;8.420;2022-08-11T08:11:21;33.60;58.60
10352;DHT22;5222;49.324;8.420;2022-08-11T08:14:07;33.40;58.80
10352;DHT22;5222;49.324;8.420;2022-08-11T08:16:53;33.60;58.90
10352;DHT22;5222;49.324;8.420;2022-08-11T08:19:37;33.40;58.60
10352;DHT22;5222;49.324;8.420;2022-08-11T08:22:06;33.40;58.80
10352;DHT22;5222;49.324;8.420;2022-08-11T08:24:34;33.40;58.80
10352;DHT22;5222;49.324;8.420;2022-08-11T08:27:01;33.30;59.00
10352;DHT22;5222;49.324;8.420;2022-08-11T08:29:31;33.30;59.30
10352;DHT22;5222;49.324;8.420;2022-08-11T08:32:16;33.70;59.10
10352;DHT22;5222;49.324;8.420;2022-08-11T08:34:43;33.70;58.40
10352;DHT22;5222;49.324;8.420;2022-08-11T08:37:12;33.80;58.40
10352;DHT22;5222;49.324;8.420;2022-08-11T08:39:44;34.20;58.40
10352;DHT22;5222;49.324;8.420;2022-08-11T08:42:12;34.10;58.10
10352;DHT22;5222;49.324;8.420;2022-08-11T08:44:46;33.60;58.30
10352;DHT22;5222;49.324;8.420;2022-08-11T08:47:17;33.70;58.70
10352;DHT22;5222;49.324;8.420;2022-08-11T08:49:47;33.90;58.20
10352;DHT22;5222;49.324;8.420;2022-08-11T08:52:19;33.70;58.80
10352;DHT22;5222;49.324;8.420;2022-08-11T08:54:53;33.80;58.50
10352;DHT22;5222;49.324;8.420;2022-08-11T08:57:22;33.20;58.90
10352;DHT22;5222;49.324;8.420;2022-08-11T08:59:50;32.50;60.00
10352;DHT22;5222;49.324;8.420;2022-08-11T09:02:18;32.20;60.30
10352;DHT22;5222;49.324;8.420;2022-08-11T09:04:46;32.60;59.90
10352;DHT22;5222;49.324;8.420;2022-08-11T09:07:15;32.80;59.50
10352;DHT22;5222;49.324;8.420;2022-08-11T09:09:44;33.20;59.30
10352;DHT22;5222;49.324;8.420;2022-08-11T09:12:14;33.50;58.60
10352;DHT22;5222;49.324;8.420;2022-08-11T09:14:45;33.80;58.00
10352;DHT22;5222;49.324;8.420;2022-08-11T09:17:35;33.20;58.60
10352;DHT22;5222;49.324;8.420;2022-08-11T09:20:06;33.00;59.00
10352;DHT22;5222;49.324;8.420;2022-08-11T09:22:37;33.30;58.80
10352;DHT22;5222;49.324;8.420;2022-08-11T09:25:25;33.60;58.70
10352;DHT22;5222;49.324;8.420;2022-08-11T09:28:12;33.80;58.20
10352;DHT22;5222;49.324;8.420;2022-08-11T09:30:40;33.60;58.70
10352;DHT22;5222;49.324;8.420;2022-08-11T09:33:10;33.10;58.90
10352;DHT22;5222;49.324;8.420;2022-08-11T09:35:38;33.10;59.20
10352;DHT22;5222;49.324;8.420;2022-08-11T09:38:11;33.50;58.20
10352;DHT22;5222;49.324;8.420;2022-08-11T09:40:57;33.50;58.50
10352;DHT22;5222;49.324;8.420;2022-08-11T09:43:27;33.30;58.10
10352;DHT22;5222;49.324;8.420;2022-08-11T09:46:12;33.30;58.30
10352;DHT22;5222;49.324;8.420;2022-08-11T09:48:42;32.90;59.00
10352;DHT22;5222;49.324;8.420;2022-08-11T09:51:11;32.90;58.50
10352;DHT22;5222;49.324;8.420;2022-08-11T09:53:40;33.20;58.50
10352;DHT22;5222;49.324;8.420;2022-08-11T09:56:10;33.10;57.60
10352;DHT22;5222;49.324;8.420;2022-08-11T09:58:57;33.40;57.20
10352;DHT22;5222;49.324;8.420;2022-08-11T10:01:28;33.50;57.50
10352;DHT22;5222;49.324;8.420;2022-08-11T10:03:59;33.50;57.50
10352;DHT22;5222;49.324;8.420;2022-08-11T10:06:28;33.50;57.50
10352;DHT22;5222;49.324;8.420;2022-08-11T10:09:17;33.70;56.20
10352;DHT22;5222;49.324;8.420;2022-08-11T10:11:45;34.10;56.10
10352;DHT22;5222;49.324;8.420;2022-08-11T10:14:15;34.20;55.10
10352;DHT22;5222;49.324;8.420;2022-08-11T10:17:05;33.80;54.70
10352;DHT22;5222;49.324;8.420;2022-08-11T10:19:34;33.30;55.10
10352;DHT22;5222;49.324;8.420;2022-08-11T10:22:04;33.40;54.50
10352;DHT22;5222;49.324;8.420;2022-08-11T10:24:48;33.10;55.00
10352;DHT22;5222;49.324;8.420;2022-08-11T10:27:33;33.40;55.10
10352;DHT22;5222;49.324;8.420;2022-08-11T10:30:02;33.40;55.30
10352;DHT22;5222;49.324;8.420;2022-08-11T10:32:49;33.70;54.80
10352;DHT22;5222;49.324;8.420;2022-08-11T10:35:34;34.00;54.30
10352;DHT22;5222;49.324;8.420;2022-08-11T10:38:01;34.40;54.10
10352;DHT22;5222;49.324;8.420;2022-08-11T10:40:29;33.80;54.10
10352;DHT22;5222;49.324;8.420;2022-08-11T10:42:58;33.80;53.90
10352;DHT22;5222;49.324;8.420;2022-08-11T10:45:30;34.20;53.40
10352;DHT22;5222;49.324;8.420;2022-08-11T10:48:16;34.20;53.60
10352;DHT22;5222;49.324;8.420;2022-08-11T10:50:46;34.50;53.70
10352;DHT22;5222;49.324;8.420;2022-08-11T10:53:32;34.60;53.60
10352;DHT22;5222;49.324;8.420;2022-08-11T10:56:18;34.20;53.60
10352;DHT22;5222;49.324;8.420;2022-08-11T10:59:03;33.90;54.00
10352;DHT22;5222;49.324;8.420;2022-08-11T11:01:37;33.80;54.50
10352;DHT22;5222;49.324;8.420;2022-08-11T11:04:07;34.10;54.00
10352;DHT22;5222;49.324;8.420;2022-08-11T11:06:44;34.20;53.30
10352;DHT22;5222;49.324;8.420;2022-08-11T11:09:16;34.40;53.30
10352;DHT22;5222;49.324;8.420;2022-08-11T11:11:48;34.90;52.70
10352;DHT22;5222;49.324;8.420;2022-08-11T11:14:34;35.10;52.40
10352;DHT22;5222;49.324;8.420;2022-08-11T11:17:25;34.70;52.60
10352;DHT22;5222;49.324;8.420;2022-08-11T11:20:26;35.20;52.20
10352;DHT22;5222;49.324;8.420;2022-08-11T11:22:59;34.80;52.70
10352;DHT22;5222;49.324;8.420;2022-08-11T11:25:35;34.70;53.70
10352;DHT22;5222;49.324;8.420;2022-08-11T11:28:18;35.20;53.30
10352;DHT22;5222;49.324;8.420;2022-08-11T11:31:01;35.70;52.50
10352;DHT22;5222;49.324;8.420;2022-08-11T11:33:46;36.00;52.10
10352;DHT22;5222;49.324;8.420;2022-08-11T11:36:18;36.60;51.80
10352;DHT22;5222;49.324;8.420;2022-08-11T11:38:50;36.80;51.40
10352;DHT22;5222;49.324;8.420;2022-08-11T11:41:21;37.00;51.10
10352;DHT22;5222;49.324;8.420;2022-08-11T11:43:53;37.30;51.00
10352;DHT22;5222;49.324;8.420;2022-08-11T11:46:21;37.70;50.50
10352;DHT22;5222;49.324;8.420;2022-08-11T11:48:51;36.80;50.80
10352;DHT22;5222;49.324;8.420;2022-08-11T11:51:19;36.40;51.60
10352;DHT22;5222;49.324;8.420;2022-08-11T11:53:47;35.90;51.60
10352;DHT22;5222;49.324;8.420;2022-08-11T11:56:14;36.40;51.40
10352;DHT22;5222;49.324;8.420;2022-08-11T11:58:42;36.80;50.70
10352;DHT22;5222;49.324;8.420;2022-08-11T12:01:26;36.80;50.30
10352;DHT22;5222;49.324;8.420;2022-08-11T12:03:56;36.90;50.20
10352;DHT22;5222;49.324;8.420;2022-08-11T12:06:24;36.80;50.20
10352;DHT22;5222;49.324;8.420;2022-08-11T12:08:54;36.90;49.80
10352;DHT22;5222;49.324;8.420;2022-08-11T12:11:22;36.70;50.20
10352;DHT22;5222;49.324;8.420;2022-08-11T12:14:09;37.00;49.30
10352;DHT22;5222;49.324;8.420;2022-08-11T12:16:38;37.10;48.70
10352;DHT22;5222;49.324;8.420;2022-08-11T12:19:11;36.70;49.00
10352;DHT22;5222;49.324;8.420;2022-08-11T12:21:39;36.80;49.10
10352;DHT22;5222;49.324;8.420;2022-08-11T12:24:29;37.00;48.90
10352;DHT22;5222;49.324;8.420;2022-08-11T12:27:14;37.00;49.10
10352;DHT22;5222;49.324;8.420;2022-08-11T12:29:49;36.90;48.90
10352;DHT22;5222;49.324;8.420;2022-08-11T12:32:19;36.50;49.20
10352;DHT22;5222;49.324;8.420;2022-08-11T12:34:48;36.60;48.80
10352;DHT22;5222;49.324;8.420;2022-08-11T12:37:19;36.90;48.20
10352;DHT22;5222;49.324;8.420;2022-08-11T12:39:49;36.90;48.20
10352;DHT22;5222;49.324;8.420;2022-08-11T12:42:36;37.30;48.40
10352;DHT22;5222;49.324;8.420;2022-08-11T12:45:25;36.60;48.90
10352;DHT22;5222;49.324;8.420;2022-08-11T12:48:05;36.20;49.70
10352;DHT22;5222;49.324;8.420;2022-08-11T12:50:55;36.20;49.00
10352;DHT22;5222;49.324;8.420;2022-08-11T12:53:44;36.50;48.80
10352;DHT22;5222;49.324;8.420;2022-08-11T12:56:12;37.10;48.60
10352;DHT22;5222;49.324;8.420;2022-08-11T12:58:57;37.20;48.40
10352;DHT22;5222;49.324;8.420;2022-08-11T13:01:43;36.90;48.20
10352;DHT22;5222;49.324;8.420;2022-08-11T13:04:28;36.70;48.80
10352;DHT22;5222;49.324;8.420;2022-08-11T13:07:15;36.80;48.70
10352;DHT22;5222;49.324;8.420;2022-08-11T13:09:43;37.20;48.70
10352;DHT22;5222;49.324;8.420;2022-08-11T13:12:11;37.10;48.40
10352;DHT22;5222;49.324;8.420;2022-08-11T13:14:56;37.10;48.80
10352;DHT22;5222;49.324;8.420;2022-08-11T13:17:24;37.50;48.30
10352;DHT22;5222;49.324;8.420;2022-08-11T13:19:54;37.20;48.30
10352;DHT22;5222;49.324;8.420;2022-08-11T13:22:25;37.40;47.90
10352;DHT22;5222;49.324;8.420;2022-08-11T13:24:54;37.40;48.20
10352;DHT22;5222;49.324;8.420;2022-08-11T13:27:23;36.90;48.60
10352;DHT22;5222;49.324;8.420;2022-08-11T13:29:50;37.00;48.90
10352;DHT22;5222;49.324;8.420;2022-08-11T13:32:39;37.30;48.30
10352;DHT22;5222;49.324;8.420;2022-08-11T13:35:08;37.30;48.30
10352;DHT22;5222;49.324;8.420;2022-08-11T13:37:40;37.40;48.00
10352;DHT22;5222;49.324;8.420;2022-08-11T13:40:09;37.50;47.90
10352;DHT22;5222;49.324;8.420;2022-08-11T13:42:37;37.20;47.90
10352;DHT22;5222;49.324;8.420;2022-08-11T13:45:06;36.90;47.90
10352;DHT22;5222;49.324;8.420;2022-08-11T13:47:34;37.00;48.20
10352;DHT22;5222;49.324;8.420;2022-08-11T13:50:04;36.30;48.60
10352;DHT22;5222;49.324;8.420;2022-08-11T13:52:32;36.00;49.40
10352;DHT22;5222;49.324;8.420;2022-08-11T13:55:01;36.30;48.80
10352;DHT22;5222;49.324;8.420;2022-08-11T13:57:29;36.60;48.30
10352;DHT22;5222;49.324;8.420;2022-08-11T13:59:58;36.80;48.30
10352;DHT22;5222;49.324;8.420;2022-08-11T14:02:37;37.10;48.10
10352;DHT22;5222;49.324;8.420;2022-08-11T14:05:07;37.10;48.10
10352;DHT22;5222;49.324;8.420;2022-08-11T14:07:37;37.40;47.90
10352;DHT22;5222;49.324;8.420;2022-08-11T14:10:08;37.60;47.70
10352;DHT22;5222;49.324;8.420;2022-08-11T14:12:40;37.20;47.70
10352;DHT22;5222;49.324;8.420;2022-08-11T14:15:30;37.00;48.00
10352;DHT22;5222;49.324;8.420;2022-08-11T14:18:02;37.40;48.30
10352;DHT22;5222;49.324;8.420;2022-08-11T14:20:31;37.10;48.10
10352;DHT22;5222;49.324;8.420;2022-08-11T14:23:21;37.10;48.40
10352;DHT22;5222;49.324;8.420;2022-08-11T14:25:51;37.40;47.80
10352;DHT22;5222;49.324;8.420;2022-08-11T14:28:36;37.50;47.80
10352;DHT22;5222;49.324;8.420;2022-08-11T14:31:03;36.90;48.20
10352;DHT22;5222;49.324;8.420;2022-08-11T14:33:34;36.10;48.60
10352;DHT22;5222;49.324;8.420;2022-08-11T14:36:02;36.30;48.70
10352;DHT22;5222;49.324;8.420;2022-08-11T14:38:31;36.20;49.00
10352;DHT22;5222;49.324;8.420;2022-08-11T14:41:00;36.20;48.70
10352;DHT22;5222;49.324;8.420;2022-08-11T14:43:46;36.60;48.50
10352;DHT22;5222;49.324;8.420;2022-08-11T14:46:32;36.90;48.40
10352;DHT22;5222;49.324;8.420;2022-08-11T14:49:16;36.70;48.30
10352;DHT22;5222;49.324;8.420;2022-08-11T14:51:45;36.70;48.40
10352;DHT22;5222;49.324;8.420;2022-08-11T14:54:13;36.60;48.70
10352;DHT22;5222;49.324;8.420;2022-08-11T14:56:59;36.60;48.60
10352;DHT22;5222;49.324;8.420;2022-08-11T14:59:28;37.10;48.20
10352;DHT22;5222;49.324;8.420;2022-08-11T15:01:55;37.50;47.30
10352;DHT22;5222;49.324;8.420;2022-08-11T15:04:40;37.50;47.50
10352;DHT22;5222;49.324;8.420;2022-08-11T15:07:07;37.50;47.40
10352;DHT22;5222;49.324;8.420;2022-08-11T15:09:34;37.40;47.70
10352;DHT22;5222;49.324;8.420;2022-08-11T15:12:05;37.10;48.00
10352;DHT22;5222;49.324;8.420;2022-08-11T15:14:41;36.70;48.40
10352;DHT22;5222;49.324;8.420;2022-08-11T15:17:26;36.20;48.30
10352;DHT22;5222;49.324;8.420;2022-08-11T15:19:54;36.10;48.70
10352;DHT22;5222;49.324;8.420;2022-08-11T15:22:39;36.20;48.10
10352;DHT22;5222;49.324;8.420;2022-08-11T15:25:22;36.50;48.50
10352;DHT22;5222;49.324;8.420;2022-08-11T15:27:52;36.10;48.10
10352;DHT22;5222;49.324;8.420;2022-08-11T15:30:37;35.50;49.10
10352;DHT22;5222;49.324;8.420;2022-08-11T15:33:25;35.50;48.90
10352;DHT22;5222;49.324;8.420;2022-08-11T15:36:13;35.70;48.90
10352;DHT22;5222;49.324;8.420;2022-08-11T15:38:59;35.70;48.70
10352;DHT22;5222;49.324;8.420;2022-08-11T15:41:30;35.70;48.70
10352;DHT22;5222;49.324;8.420;2022-08-11T15:44:20;35.50;48.60
10352;DHT22;5222;49.324;8.420;2022-08-11T15:47:22;35.30;48.90
10352;DHT22;5222;49.324;8.420;2022-08-11T15:49:53;35.40;48.90
10352;DHT22;5222;49.324;8.420;2022-08-11T15:52:26;35.50;49.00
10352;DHT22;5222;49.324;8.420;2022-08-11T15:54:54;35.40;49.00
10352;DHT22;5222;49.324;8.420;2022-08-11T15:57:27;35.70;48.50
10352;DHT22;5222;49.324;8.420;2022-08-11T16:00:16;35.40;48.60
10352;DHT22;5222;49.324;8.420;2022-08-11T16:03:02;35.10;49.60
10352;DHT22;5222;49.324;8.420;2022-08-11T16:05:48;35.10;48.90
10352;DHT22;5222;49.324;8.420;2022-08-11T16:08:19;35.40;49.00
10352;DHT22;5222;49.324;8.420;2022-08-11T16:10:48;35.60;49.00
10352;DHT22;5222;49.324;8.420;2022-08-11T16:13:16;35.40;48.70
10352;DHT22;5222;49.324;8.420;2022-08-11T16:16:05;34.90;49.30
10352;DHT22;5222;49.324;8.420;2022-08-11T16:18:42;34.80;49.50
10352;DHT22;5222;49.324;8.420;2022-08-11T16:21:13;34.80;49.70
10352;DHT22;5222;49.324;8.420;2022-08-11T16:23:43;34.90;49.20
10352;DHT22;5222;49.324;8.420;2022-08-11T16:26:12;34.70;49.10
10352;DHT22;5222;49.324;8.420;2022-08-11T16:28:42;34.60;49.20
10352;DHT22;5222;49.324;8.420;2022-08-11T16:31:11;35.00;49.00
10352;DHT22;5222;49.324;8.420;2022-08-11T16:33:41;35.00;49.10
10352;DHT22;5222;49.324;8.420;2022-08-11T16:36:09;35.00;49.30
10352;DHT22;5222;49.324;8.420;2022-08-11T16:38:55;35.10;49.10
10352;DHT22;5222;49.324;8.420;2022-08-11T16:41:24;35.30;49.30
10352;DHT22;5222;49.324;8.420;2022-08-11T16:44:12;35.30;49.10
10352;DHT22;5222;49.324;8.420;2022-08-11T16:46:59;35.30;49.30
10352;DHT22;5222;49.324;8.420;2022-08-11T16:49:30;35.00;49.30
10352;DHT22;5222;49.324;8.420;2022-08-11T16:52:01;34.80;49.30
10352;DHT22;5222;49.324;8.420;2022-08-11T16:54:30;34.50;50.20
10352;DHT22;5222;49.324;8.420;2022-08-11T16:57:00;34.40;49.50
10352;DHT22;5222;49.324;8.420;2022-08-11T16:59:49;34.30;50.10
10352;DHT22;5222;49.324;8.420;2022-08-11T17:02:18;34.30;50.00
10352;DHT22;5222;49.324;8.420;2022-08-11T17:05:09;34.20;50.40
10352;DHT22;5222;49.324;8.420;2022-08-11T17:07:56;34.20;50.80
10352;DHT22;5222;49.324;8.420;2022-08-11T17:10:47;34.20;50.80
10352;DHT22;5222;49.324;8.420;2022-08-11T17:13:36;34.20;50.30
10352;DHT22;5222;49.324;8.420;2022-08-11T17:16:08;34.10;50.10
10352;DHT22;5222;49.324;8.420;2022-08-11T17:18:42;33.90;50.50
10352;DHT22;5222;49.324;8.420;2022-08-11T17:21:19;34.10;51.50
10352;DHT22;5222;49.324;8.420;2022-08-11T17:23:49;34.50;50.50
10352;DHT22;5222;49.324;8.420;2022-08-11T17:26:19;34.50;50.30
10352;DHT22;5222;49.324;8.420;2022-08-11T17:28:48;34.10;50.20
10352;DHT22;5222;49.324;8.420;2022-08-11T17:31:18;33.90;50.40
10352;DHT22;5222;49.324;8.420;2022-08-11T17:34:06;34.10;50.50
10352;DHT22;5222;49.324;8.420;2022-08-11T17:36:52;34.00;50.70
10352;DHT22;5222;49.324;8.420;2022-08-11T17:39:21;33.90;50.40